Terminal Aerodrome Forecast
Issued by NWS Houston/Galveston TX

Home | Current Version | Previous Version | Text Only | Print | Product List | Glossary On
Versions: 1 2 3 4 5 6 7 8 9 10 11 12 13 14 15 16 17 18 19 20 21 22 23 24 25 26
000
FTUS44 KHGX 240522
TAFHOU
TAF
KHOU 240522Z 2406/2506 14009KT P6SM BKN009
     FM240800 17004KT 6SM BR BKN015
      TEMPO 2409/2412 4SM BR BKN009
     FM241500 21004KT P6SM SCT015
     FM242100 32008G14KT P6SM FEW250=

USA.gov is the U.S. government's official web portal to all federal, state and local government web resources and services.